Sedalia, NC (27342)

8:10 AM EDT on June 23, 2017 (GMT -0400)
Brownstone Drive | | Change Station

Elev 702 ft 36.11 °N, 79.53 °W | Updated 13 minutes ago

Rain
Rain
72.9 °F
Feels Like 72.9 °F
N
0.6
Wind Variable Wind from SW
Gusts 2.5 mph

Today
High -- | Low -- °F
--% Chance of Precip.
Yesterday
High -- | Low -- °F
Precip. -- in
Pressure 29.98 in
Visibility 7.0 miles
Clouds Few 1000 ft
Few 1800 ft
Mostly Cloudy 11000 ft
Dew Point 73 °F
Humidity 100%
Rainfall 0.11 in
Snow Depth Not available.
6:02 AM 8:39 PM
Waning Crescent, 1% visible
METAR KBUY 231154Z AUTO 17004KT 7SM -RA FEW010 FEW018 BKN110 23/23 A3000 RMK AO2 SLP151 P0007 60019 70019 T02330228 10233 20222 50003 TSNO
Pressure 29.98 in
Visibility 7.0 miles
Clouds Few 1000 ft
Few 1800 ft
Mostly Cloudy 11000 ft
Dew Point 73 °F
Humidity 100%
Rainfall 0.11 in
Snow Depth Not available.
6:02 AM 8:39 PM
Waning Crescent, 1% visible
METAR KBUY 231154Z AUTO 17004KT 7SM -RA FEW010 FEW018 BKN110 23/23 A3000 RMK AO2 SLP151 P0007 60019 70019 T02330228 10233 20222 50003 TSNO

Get Severe Weather Alerts

Thanks for signing up!

Be on the lookout for a verification email in your inbox.

You'll start receiving the daily forecast at 6 AM.

×

10-Day Weather Forecast

Almanac

Astronomy

Jun. 23, 2017 Rise Set
Actual Time
Civil Twilight
Nautical Twilight
Astronomical Twilight
Moon
Length of Visible Light
Length of Day
Tomorrow will be .
, % of the Moon is Illuminated

Today's Extremes

State Highs State Lows

Community

WunderPhotos

Category 6

Welcome to Category 6. This is the collective home for Weather Underground's featured writeups by Dr. Jeff Masters (right), Bob Henson (left), Chris Burt, and other regular contributors.

Nearby

Air Quality

  Air Quality AQ Index Pollutant
Not available.

Snow Depth

Station Depth Elevation

Earthquake Activity

City Distance Mag. Time & Date
Minimum magnitude displayed is 2.5.

Coastal Water Temperatures

Place Temperature

Stations

Nearby Weather Stations

Station Location Temp. Windchill Dew Point Humidity Wind Precip. Elev Updated Type
                   

Watches & Warnings

There are currently no watches in effect.